Time;durP1;ratioP1;P1;durP2;ratioP2;P2;SDS_P1;SDS_P2;PMS_P1;PMS_P2;Temp;Humidity;BMP_temperature;BMP_pressure;BME280_temperature;BME280_humidity;BME280_pressure;Samples;Min_cycle;Max_cycle;Signal;HPM_P1;HPM_P2
2022/11/25 00:01:43;;;;;;;13.52;3.65;;;7.70;99.90;;;;;;4943899;28;20105;-93
2022/11/25 00:04:09;;;;;;;9.82;3.45;;;7.70;99.90;;;;;;4942950;28;20035;-94
2022/11/25 00:06:35;;;;;;;15.88;4.97;;;7.70;99.90;;;;;;4943404;28;20041;-93
2022/11/25 00:09:05;;;;;;;15.77;5.70;;;7.70;99.90;;;;;;4959136;28;20050;-93
2022/11/25 00:11:33;;;;;;;18.05;6.32;;;7.80;99.90;;;;;;4968122;28;20121;-92
2022/11/25 00:13:58;;;;;;;13.75;4.70;;;7.80;99.90;;;;;;4939477;28;20047;-92
2022/11/25 00:16:25;;;;;;;14.23;3.85;;;7.80;99.90;;;;;;4930781;28;20049;-93
2022/11/25 00:18:52;;;;;;;17.45;4.63;;;7.80;99.90;;;;;;4958421;28;20047;-93
2022/11/25 00:21:24;;;;;;;17.77;4.72;;;7.70;99.90;;;;;;4930196;28;20038;-93
2022/11/25 00:23:55;;;;;;;17.85;5.80;;;7.80;99.90;;;;;;4946796;28;20038;-93
2022/11/25 00:26:22;;;;;;;13.00;3.70;;;7.90;99.90;;;;;;4940700;28;20054;-92
2022/11/25 00:28:49;;;;;;;16.95;4.20;;;7.80;99.90;;;;;;4938623;28;20484;-93
2022/11/25 00:31:22;;;;;;;16.48;5.72;;;7.90;99.90;;;;;;4922425;28;20054;-93
2022/11/25 00:33:49;;;;;;;13.02;5.40;;;7.90;99.90;;;;;;4948638;28;20070;-92
2022/11/25 00:36:29;;;;;;;11.07;3.53;;;7.90;99.90;;;;;;4962735;28;20050;-93
2022/11/25 00:38:59;;;;;;;17.38;6.00;;;7.90;99.90;;;;;;4926311;28;20155;-93
2022/11/25 00:46:58;;;;;;;16.00;5.75;;;7.90;99.90;;;;;;4943979;28;20055;-94
2022/11/25 00:49:24;;;;;;;16.42;6.00;;;8.00;99.90;;;;;;4940306;28;20049;-94
2022/11/25 00:51:50;;;;;;;15.23;3.53;;;8.00;99.90;;;;;;4924410;28;20158;-93
2022/11/25 00:54:16;;;;;;;14.30;3.70;;;8.00;99.90;;;;;;4936373;28;20125;-94
2022/11/25 00:56:42;;;;;;;13.73;3.80;;;8.00;99.90;;;;;;4946941;28;20053;-93
2022/11/25 00:59:07;;;;;;;14.60;3.85;;;7.90;99.90;;;;;;4924585;28;20051;-93
2022/11/25 01:01:34;;;;;;;16.10;5.68;;;8.00;99.90;;;;;;4942074;28;20370;-94
2022/11/25 01:03:59;;;;;;;14.60;4.40;;;8.00;99.90;;;;;;4941417;28;20050;-93
2022/11/25 01:06:25;;;;;;;14.23;4.20;;;8.00;99.90;;;;;;4923552;28;20043;-93
2022/11/25 01:08:50;;;;;;;13.82;3.90;;;7.90;99.90;;;;;;4946926;28;20054;-94
2022/11/25 01:11:18;;;;;;;17.23;5.60;;;7.90;99.90;;;;;;4944885;28;20130;-94
2022/11/25 01:13:44;;;;;;;17.48;5.68;;;8.00;99.90;;;;;;4950093;28;20043;-94
2022/11/25 01:16:16;;;;;;;12.30;3.90;;;8.00;99.90;;;;;;4941937;28;20041;-94
2022/11/25 01:18:42;;;;;;;15.95;4.38;;;8.00;99.90;;;;;;4924793;28;20137;-94
2022/11/25 01:21:12;;;;;;;13.55;3.65;;;8.00;99.90;;;;;;4924016;29;20441;-94
2022/11/25 01:23:38;;;;;;;10.70;2.72;;;8.00;99.90;;;;;;4921635;28;20122;-94
2022/11/25 01:26:07;;;;;;;12.57;3.45;;;8.00;99.90;;;;;;4975798;28;20050;-94
2022/11/25 01:28:32;;;;;;;17.77;4.15;;;8.00;99.90;;;;;;4933504;28;20474;-93
2022/11/25 01:31:07;;;;;;;15.05;5.30;;;8.00;99.90;;;;;;4939438;28;20039;-94
2022/11/25 01:33:33;;;;;;;17.48;5.22;;;8.00;99.90;;;;;;4941320;28;20038;-93
2022/11/25 01:36:03;;;;;;;17.67;5.82;;;8.10;99.90;;;;;;4937487;28;20526;-92
2022/11/25 01:38:30;;;;;;;10.68;3.47;;;8.10;99.90;;;;;;4954088;28;20106;-93
2022/11/25 01:40:56;;;;;;;14.30;3.75;;;8.10;99.90;;;;;;4941424;28;20043;-94
2022/11/25 01:43:22;;;;;;;16.55;5.22;;;8.10;99.90;;;;;;4929359;28;20035;-93
2022/11/25 01:45:48;;;;;;;14.27;5.35;;;8.10;99.90;;;;;;4930513;28;20047;-94
2022/11/25 01:48:25;;;;;;;15.77;4.47;;;8.20;99.90;;;;;;4942947;28;20146;-93
2022/11/25 01:50:52;;;;;;;10.43;3.25;;;8.20;99.90;;;;;;4958943;28;20042;-94
2022/11/25 01:53:20;;;;;;;12.27;3.67;;;8.20;99.90;;;;;;4931205;28;20047;-94
2022/11/25 01:55:55;;;;;;;14.80;3.75;;;8.20;99.90;;;;;;4973727;28;20035;-95
2022/11/25 01:58:26;;;;;;;18.13;5.13;;;8.20;99.90;;;;;;4934077;28;20038;-93
2022/11/25 02:00:52;;;;;;;11.55;3.28;;;8.20;99.90;;;;;;4929435;28;20054;-93
2022/11/25 02:03:26;;;;;;;15.02;3.70;;;8.20;99.90;;;;;;4960808;28;20042;-93
2022/11/25 02:06:02;;;;;;;15.27;3.88;;;8.10;99.90;;;;;;4928027;28;20563;-94
2022/11/25 02:08:29;;;;;;;16.20;6.35;;;8.10;99.90;;;;;;4955260;29;20051;-93
2022/11/25 02:10:56;;;;;;;17.50;6.25;;;8.10;99.90;;;;;;4930336;28;20046;-92
2022/11/25 02:13:23;;;;;;;16.70;5.95;;;8.20;99.90;;;;;;4936769;28;20093;-93
2022/11/25 02:15:49;;;;;;;13.10;4.45;;;8.20;99.90;;;;;;4943302;28;20108;-92
2022/11/25 02:18:15;;;;;;;14.00;5.32;;;8.10;99.90;;;;;;4941463;28;20098;-93
2022/11/25 02:20:41;;;;;;;17.00;6.72;;;8.10;99.90;;;;;;4957363;28;20043;-94
2022/11/25 02:23:29;;;;;;;16.17;4.65;;;8.10;99.90;;;;;;4956588;28;20443;-93
2022/11/25 02:25:55;;;;;;;13.73;4.15;;;8.10;99.90;;;;;;4989504;28;20402;-92
2022/11/25 02:28:23;;;;;;;15.07;4.88;;;8.10;99.90;;;;;;4935703;28;20043;-93
2022/11/25 02:30:51;;;;;;;19.48;6.93;;;8.10;99.90;;;;;;4928105;28;20046;-92
2022/11/25 02:33:17;;;;;;;19.13;7.10;;;8.10;99.90;;;;;;4980889;28;20049;-91
2022/11/25 02:35:54;;;;;;;18.90;6.72;;;8.10;99.90;;;;;;4959390;28;20050;-93
2022/11/25 02:38:31;;;;;;;19.38;7.20;;;8.10;99.90;;;;;;4981987;28;20041;-91
2022/11/25 02:41:12;;;;;;;19.70;6.95;;;8.10;99.90;;;;;;4949537;28;20085;-92
2022/11/25 02:43:38;;;;;;;20.55;6.95;;;8.10;99.90;;;;;;4958670;28;20097;-91
2022/11/25 02:46:10;;;;;;;20.33;7.10;;;8.10;99.90;;;;;;4979050;28;20092;-93
2022/11/25 02:48:38;;;;;;;17.00;4.70;;;8.10;99.90;;;;;;4953912;28;20050;-92
2022/11/25 02:51:05;;;;;;;17.52;4.63;;;8.00;99.90;;;;;;4941957;28;20085;-92
2022/11/25 02:53:31;;;;;;;15.25;4.95;;;8.10;99.90;;;;;;4936374;28;20141;-93
2022/11/25 02:55:57;;;;;;;17.23;4.68;;;8.10;99.90;;;;;;4952342;28;20074;-92
2022/11/25 02:58:22;;;;;;;21.60;7.20;;;8.10;99.90;;;;;;4944320;28;20039;-92
2022/11/25 03:00:48;;;;;;;16.38;5.80;;;8.10;99.90;;;;;;4933381;28;20042;-93
2022/11/25 03:03:17;;;;;;;17.55;7.50;;;8.10;99.90;;;;;;4931482;28;20471;-92
2022/11/25 03:05:43;;;;;;;15.52;5.20;;;8.20;99.90;;;;;;4953827;28;20042;-93
2022/11/25 03:08:09;;;;;;;14.48;4.78;;;8.20;99.90;;;;;;4964719;28;20070;-92
2022/11/25 03:10:36;;;;;;;19.20;7.70;;;8.20;99.90;;;;;;4954161;28;20114;-92
2022/11/25 03:13:02;;;;;;;15.10;5.22;;;8.20;99.90;;;;;;4948051;28;20045;-92
2022/11/25 03:15:28;;;;;;;16.90;3.90;;;8.20;99.90;;;;;;4944622;28;20067;-91
2022/11/25 03:17:53;;;;;;;15.90;5.13;;;8.20;99.90;;;;;;4961198;28;20167;-93
2022/11/25 03:20:19;;;;;;;12.18;4.78;;;8.20;99.90;;;;;;4963969;28;20105;-92
2022/11/25 03:22:45;;;;;;;23.67;8.13;;;8.20;99.90;;;;;;4964479;28;20039;-92
2022/11/25 03:25:12;;;;;;;15.38;5.57;;;8.30;99.90;;;;;;4941699;28;20050;-90
2022/11/25 03:27:38;;;;;;;19.20;8.52;;;8.20;99.90;;;;;;4938336;28;20109;-92
2022/11/25 03:30:06;;;;;;;19.60;5.25;;;8.30;99.90;;;;;;4925275;28;20487;-92
2022/11/25 03:32:32;;;;;;;14.82;4.68;;;8.20;99.90;;;;;;4933281;28;20424;-92
2022/11/25 03:34:57;;;;;;;21.33;8.40;;;8.30;99.90;;;;;;4937816;28;20071;-92
2022/11/25 03:37:23;;;;;;;16.92;5.93;;;8.30;99.90;;;;;;4957460;28;20038;-92
2022/11/25 03:39:49;;;;;;;20.98;8.07;;;8.30;99.90;;;;;;4965415;28;20035;-92
2022/11/25 03:42:14;;;;;;;13.00;5.10;;;8.30;99.90;;;;;;4930968;28;20567;-91
2022/11/25 03:44:40;;;;;;;22.08;8.30;;;8.30;99.90;;;;;;4945003;29;20031;-93
2022/11/25 03:47:06;;;;;;;11.05;4.47;;;8.40;99.90;;;;;;4966617;28;20043;-91
2022/11/25 03:49:31;;;;;;;16.15;4.95;;;8.30;99.90;;;;;;4933953;28;20177;-93
2022/11/25 03:51:57;;;;;;;20.45;5.93;;;8.30;99.90;;;;;;4938553;28;20043;-92
2022/11/25 03:54:23;;;;;;;18.77;5.90;;;8.30;99.90;;;;;;4970924;28;20038;-91
2022/11/25 03:56:48;;;;;;;17.23;6.88;;;8.30;99.90;;;;;;4939920;29;20075;-92
2022/11/25 03:59:14;;;;;;;21.55;8.43;;;8.40;99.90;;;;;;4937038;28;20042;-92
2022/11/25 04:01:40;;;;;;;15.63;5.13;;;8.40;99.90;;;;;;4937198;28;20067;-93
2022/11/25 04:04:05;;;;;;;25.10;5.53;;;8.40;99.90;;;;;;4949708;28;20066;-93
2022/11/25 04:06:31;;;;;;;20.10;7.53;;;8.40;99.90;;;;;;4933914;28;20043;-92
2022/11/25 04:08:57;;;;;;;14.25;5.57;;;8.40;99.90;;;;;;4975924;28;20086;-91
2022/11/25 04:12:45;;;;;;;15.30;4.93;;;8.40;99.90;;;;;;4948948;28;20093;-92
2022/11/25 04:14:08;;;;;;;17.88;5.55;;;8.30;99.90;;;;;;4961770;28;20114;-92
2022/11/25 04:16:34;;;;;;;22.50;8.43;;;8.30;99.90;;;;;;4931556;28;20419;-91
2022/11/25 04:19:00;;;;;;;20.92;8.13;;;8.40;99.90;;;;;;4949108;28;20031;-92
2022/11/25 04:21:25;;;;;;;19.17;8.57;;;8.40;99.90;;;;;;4965321;28;20129;-92
2022/11/25 04:23:51;;;;;;;19.63;6.03;;;8.40;99.90;;;;;;4949107;28;20066;-92
2022/11/25 04:26:17;;;;;;;17.17;5.40;;;8.40;99.90;;;;;;4941080;28;20059;-90
2022/11/25 04:28:42;;;;;;;19.88;6.15;;;8.40;99.90;;;;;;4940685;28;20193;-92
2022/11/25 04:31:08;;;;;;;21.13;6.40;;;8.40;99.90;;;;;;4947672;28;20042;-92
2022/11/25 04:33:34;;;;;;;19.33;8.30;;;8.40;99.90;;;;;;4947899;28;20526;-93
2022/11/25 04:35:59;;;;;;;20.00;8.68;;;8.50;99.90;;;;;;4945724;28;20078;-92
2022/11/25 04:38:25;;;;;;;22.13;9.25;;;8.40;99.90;;;;;;4944318;28;20424;-91
2022/11/25 04:40:51;;;;;;;21.67;9.70;;;8.50;99.90;;;;;;4945831;28;20066;-92
2022/11/25 04:43:16;;;;;;;20.85;9.50;;;8.50;99.90;;;;;;4962202;28;20185;-92
2022/11/25 04:45:42;;;;;;;17.27;6.13;;;8.50;99.90;;;;;;4949240;28;20042;-92
2022/11/25 04:48:09;;;;;;;24.88;10.70;;;8.50;99.90;;;;;;4961919;28;20047;-92
2022/11/25 04:50:34;;;;;;;23.00;9.48;;;8.50;99.90;;;;;;4939311;28;20050;-92
2022/11/25 04:53:00;;;;;;;21.75;10.38;;;8.50;99.90;;;;;;4946988;28;20062;-92
2022/11/25 04:55:26;;;;;;;21.15;6.35;;;8.50;99.90;;;;;;4953381;28;20708;-93
2022/11/25 04:57:51;;;;;;;15.52;6.10;;;8.40;99.90;;;;;;4951172;28;20126;-92
2022/11/25 05:00:18;;;;;;;21.13;10.85;;;8.40;99.90;;;;;;4934368;28;20042;-91
2022/11/25 05:02:43;;;;;;;25.25;10.65;;;8.50;99.90;;;;;;4946478;28;20043;-92
2022/11/25 05:05:09;;;;;;;15.02;6.10;;;8.40;99.90;;;;;;4956770;28;20093;-93
2022/11/25 05:07:35;;;;;;;16.48;6.70;;;8.40;99.90;;;;;;4942822;28;20059;-94
2022/11/25 05:10:00;;;;;;;17.88;6.70;;;8.40;99.90;;;;;;4930561;28;20053;-92
2022/11/25 05:12:27;;;;;;;22.90;11.63;;;8.40;99.90;;;;;;4925430;28;20049;-92
2022/11/25 05:14:53;;;;;;;20.77;11.27;;;8.40;99.90;;;;;;4930026;28;20503;-92
2022/11/25 05:17:22;;;;;;;17.45;7.00;;;8.50;99.90;;;;;;4950210;28;20102;-92
2022/11/25 05:19:49;;;;;;;21.33;10.43;;;8.40;99.90;;;;;;4952610;28;20046;-91
2022/11/25 05:22:20;;;;;;;21.95;10.98;;;8.40;99.90;;;;;;4934295;28;20046;-92
2022/11/25 05:24:46;;;;;;;20.75;7.93;;;8.50;99.90;;;;;;4949645;28;20498;-90
2022/11/25 05:27:12;;;;;;;15.07;6.88;;;8.40;99.90;;;;;;4929769;29;20056;-91
2022/11/25 05:29:37;;;;;;;23.20;11.88;;;8.40;99.90;;;;;;4906303;29;20059;-92
2022/11/25 05:32:04;;;;;;;23.88;11.30;;;8.40;99.90;;;;;;4924876;29;20107;-91
2022/11/25 05:34:30;;;;;;;21.05;11.57;;;8.50;99.90;;;;;;4905831;29;20047;-91
2022/11/25 05:36:55;;;;;;;23.02;12.00;;;8.50;99.90;;;;;;4932971;29;20044;-92
2022/11/25 05:39:21;;;;;;;23.80;11.65;;;8.50;99.90;;;;;;4925009;29;20038;-90
2022/11/25 05:41:47;;;;;;;19.85;8.18;;;8.50;99.90;;;;;;4907595;29;20040;-91
2022/11/25 05:44:13;;;;;;;23.45;12.00;;;8.40;99.90;;;;;;4926143;29;20392;-93
2022/11/25 05:46:38;;;;;;;21.17;11.80;;;8.50;99.90;;;;;;4935072;29;20052;-93
2022/11/25 05:49:04;;;;;;;23.48;11.73;;;8.50;99.90;;;;;;4929987;29;20603;-91
2022/11/25 05:51:30;;;;;;;16.75;7.43;;;8.50;99.90;;;;;;4923206;29;20043;-91
2022/11/25 05:53:56;;;;;;;19.77;7.30;;;8.50;99.90;;;;;;4929915;29;20048;-92
2022/11/25 05:56:22;;;;;;;23.25;12.18;;;8.40;99.90;;;;;;4911162;29;20039;-92
2022/11/25 05:58:48;;;;;;;20.50;11.57;;;8.50;99.90;;;;;;4926963;29;20044;-91
2022/11/25 06:01:15;;;;;;;19.65;11.45;;;8.50;99.90;;;;;;4924161;29;20508;-93
2022/11/25 06:03:42;;;;;;;19.42;8.95;;;8.60;99.90;;;;;;4906695;29;20051;-92
2022/11/25 06:06:08;;;;;;;20.55;7.30;;;8.50;99.90;;;;;;4925904;29;20421;-91
2022/11/25 06:08:35;;;;;;;22.20;12.05;;;8.50;99.90;;;;;;4930336;29;20051;-92
2022/11/25 06:11:10;;;;;;;15.30;6.85;;;8.50;99.90;;;;;;4923487;29;20051;-92
2022/11/25 06:13:37;;;;;;;20.35;10.80;;;8.50;99.90;;;;;;4906477;29;20151;-92
2022/11/25 06:16:08;;;;;;;23.15;11.13;;;8.60;99.90;;;;;;4905063;29;20035;-92
2022/11/25 06:18:35;;;;;;;14.75;6.38;;;8.60;99.90;;;;;;4925011;29;20152;-92
2022/11/25 06:21:01;;;;;;;15.98;6.82;;;8.60;99.90;;;;;;4907001;29;20103;-95
2022/11/25 06:23:27;;;;;;;21.35;9.10;;;8.50;99.90;;;;;;4903462;29;20422;-91
2022/11/25 06:25:52;;;;;;;19.33;10.10;;;8.60;99.90;;;;;;4933853;28;20170;-90
2022/11/25 06:28:18;;;;;;;19.65;10.05;;;8.60;99.90;;;;;;4944334;28;20055;-89
2022/11/25 06:30:44;;;;;;;14.23;5.38;;;8.60;99.90;;;;;;4927560;28;20427;-88
2022/11/25 06:33:09;;;;;;;16.50;8.77;;;8.60;99.90;;;;;;4940935;28;20408;-88
2022/11/25 06:35:35;;;;;;;20.55;9.23;;;8.60;99.90;;;;;;4942916;28;20129;-90
2022/11/25 06:38:01;;;;;;;18.27;8.70;;;8.60;99.90;;;;;;4942710;28;20407;-89
2022/11/25 06:40:27;;;;;;;17.58;9.20;;;8.70;99.90;;;;;;4964321;28;20039;-89
2022/11/25 06:42:52;;;;;;;17.85;9.23;;;8.70;99.90;;;;;;4940842;28;20082;-89
2022/11/25 06:45:18;;;;;;;15.90;5.68;;;8.60;99.90;;;;;;4950724;28;20039;-90
2022/11/25 06:47:44;;;;;;;17.75;5.90;;;8.60;99.90;;;;;;4962232;28;20078;-89
2022/11/25 06:50:09;;;;;;;19.70;8.70;;;8.60;99.90;;;;;;4947377;28;20102;-88
2022/11/25 06:52:35;;;;;;;14.13;5.28;;;8.60;99.90;;;;;;4932511;28;20532;-89
2022/11/25 06:55:02;;;;;;;13.05;5.03;;;8.60;99.90;;;;;;4943532;28;20049;-89
2022/11/25 06:57:28;;;;;;;16.02;7.72;;;8.60;99.90;;;;;;4964753;28;20050;-89
2022/11/25 06:59:53;;;;;;;15.93;7.38;;;8.60;99.90;;;;;;4942137;28;20109;-89
2022/11/25 07:02:19;;;;;;;15.70;4.93;;;8.70;99.90;;;;;;4960056;28;20118;-88
2022/11/25 07:04:45;;;;;;;10.20;4.13;;;8.60;99.90;;;;;;4967772;28;20027;-88
2022/11/25 07:07:10;;;;;;;17.05;7.38;;;8.60;99.90;;;;;;4962126;28;20039;-88
2022/11/25 07:09:36;;;;;;;18.35;7.07;;;8.60;99.90;;;;;;4951788;28;20134;-88
2022/11/25 07:12:02;;;;;;;15.70;6.53;;;8.60;99.90;;;;;;4936074;28;20422;-89
2022/11/25 07:14:28;;;;;;;15.93;4.47;;;8.70;99.90;;;;;;4964292;28;20114;-88
2022/11/25 07:16:53;;;;;;;12.68;3.95;;;8.50;99.90;;;;;;4967969;28;20435;-83
2022/11/25 07:19:19;;;;;;;16.13;6.43;;;8.50;99.90;;;;;;4945762;28;20086;-85
2022/11/25 07:21:45;;;;;;;11.02;4.07;;;8.40;99.90;;;;;;4938505;28;20043;-85
2022/11/25 07:24:13;;;;;;;15.35;6.22;;;8.40;99.90;;;;;;4962005;28;20126;-85
2022/11/25 07:26:41;;;;;;;16.85;7.25;;;8.40;99.90;;;;;;4950654;28;20057;-84
2022/11/25 07:29:09;;;;;;;16.30;6.20;;;8.30;99.90;;;;;;4956724;28;20047;-84
2022/11/25 07:31:37;;;;;;;10.10;3.60;;;8.30;99.90;;;;;;4944114;28;20066;-86
2022/11/25 07:34:12;;;;;;;16.98;5.80;;;8.20;99.90;;;;;;4957033;28;20065;-85
2022/11/25 07:36:39;;;;;;;17.08;5.15;;;8.20;99.90;;;;;;4945945;28;20101;-85
2022/11/25 07:39:08;;;;;;;14.52;3.72;;;8.10;99.90;;;;;;4963614;28;20063;-85
2022/11/25 07:41:34;;;;;;;42.05;9.20;;;8.10;99.90;;;;;;4938050;29;20043;-85
2022/11/25 07:44:01;;;;;;;15.13;4.05;;;8.10;99.90;;;;;;4942322;28;20038;-84
2022/11/25 07:46:29;;;;;;;10.25;3.60;;;8.10;99.90;;;;;;4958878;28;20039;-84
2022/11/25 07:49:04;;;;;;;15.00;3.85;;;8.00;99.90;;;;;;4927093;28;20059;-85
2022/11/25 07:51:32;;;;;;;11.40;3.03;;;8.00;99.90;;;;;;4937871;28;20527;-85
2022/11/25 07:54:01;;;;;;;10.75;3.72;;;8.00;99.90;;;;;;4945110;28;20054;-85
2022/11/25 07:56:27;;;;;;;13.80;5.63;;;8.00;99.90;;;;;;4947171;28;20059;-85
2022/11/25 07:58:54;;;;;;;12.82;3.88;;;8.10;99.90;;;;;;4964223;28;20046;-87
2022/11/25 08:01:19;;;;;;;13.65;4.13;;;8.10;99.90;;;;;;4942537;28;20039;-86
2022/11/25 08:03:47;;;;;;;10.07;3.75;;;8.00;99.90;;;;;;4945723;28;20105;-86
2022/11/25 08:06:16;;;;;;;11.18;3.92;;;8.00;99.90;;;;;;4939317;28;20162;-87
2022/11/25 08:08:42;;;;;;;14.27;6.35;;;8.00;99.90;;;;;;4945517;28;20074;-86
2022/11/25 08:11:11;;;;;;;16.40;6.55;;;8.00;99.90;;;;;;4963802;28;20050;-87
2022/11/25 08:13:37;;;;;;;11.68;4.28;;;8.00;99.90;;;;;;4940840;28;20185;-89
2022/11/25 08:16:04;;;;;;;10.63;4.82;;;7.90;99.90;;;;;;4960519;28;20058;-88
2022/11/25 08:18:30;;;;;;;16.30;6.70;;;8.00;99.90;;;;;;4937336;28;20039;-88
2022/11/25 08:21:00;;;;;;;12.77;4.65;;;8.00;99.90;;;;;;4944958;28;20077;-89
2022/11/25 08:23:26;;;;;;;16.15;6.88;;;8.00;99.90;;;;;;4958225;28;20031;-89
2022/11/25 08:25:52;;;;;;;17.80;7.50;;;8.10;99.90;;;;;;4942953;28;20048;-89
2022/11/25 08:28:17;;;;;;;15.77;5.47;;;8.10;99.90;;;;;;4956719;28;20055;-91
2022/11/25 08:30:43;;;;;;;11.60;3.92;;;8.10;99.90;;;;;;4944159;28;20042;-87
2022/11/25 08:33:09;;;;;;;11.90;5.13;;;8.10;99.90;;;;;;4964114;28;20035;-85
2022/11/25 08:35:37;;;;;;;17.25;6.35;;;8.10;99.90;;;;;;4961409;28;20555;-86
2022/11/25 08:38:04;;;;;;;15.95;7.07;;;8.10;99.90;;;;;;4960905;28;20073;-89
2022/11/25 08:40:32;;;;;;;12.88;4.68;;;8.20;99.90;;;;;;4941143;28;20074;-88
2022/11/25 08:42:57;;;;;;;14.43;4.82;;;8.20;99.90;;;;;;4941961;28;20526;-89
2022/11/25 08:45:23;;;;;;;14.57;7.22;;;8.20;99.90;;;;;;4957891;28;20039;-89
2022/11/25 08:47:48;;;;;;;18.85;7.65;;;8.30;99.90;;;;;;4939125;28;20043;-89
2022/11/25 08:50:14;;;;;;;17.35;6.05;;;8.40;99.90;;;;;;4962348;28;20039;-88
2022/11/25 08:52:41;;;;;;;12.68;4.82;;;8.40;99.90;;;;;;4941215;28;20058;-89
2022/11/25 08:55:07;;;;;;;13.35;4.07;;;8.40;99.90;;;;;;4937317;28;20042;-89
2022/11/25 08:57:33;;;;;;;17.75;8.93;;;8.50;99.90;;;;;;4945900;28;20377;-88
2022/11/25 08:59:59;;;;;;;16.70;8.38;;;8.70;99.90;;;;;;4945188;28;20100;-89
2022/11/25 09:02:25;;;;;;;12.98;4.82;;;8.80;99.90;;;;;;4937872;28;20136;-88
2022/11/25 09:04:50;;;;;;;19.73;8.38;;;8.90;99.90;;;;;;4957973;28;20043;-88
2022/11/25 09:07:16;;;;;;;14.40;4.97;;;8.80;99.90;;;;;;4958807;28;20045;-90
2022/11/25 09:09:42;;;;;;;15.27;8.07;;;8.90;99.90;;;;;;4923438;28;20043;-89
2022/11/25 09:12:07;;;;;;;13.23;4.72;;;8.90;99.90;;;;;;4941283;28;20393;-88
2022/11/25 09:14:33;;;;;;;14.35;6.03;;;8.90;99.90;;;;;;4941982;28;20068;-89
2022/11/25 09:17:00;;;;;;;14.95;5.10;;;8.80;99.90;;;;;;4959562;28;20050;-88
2022/11/25 09:19:26;;;;;;;17.80;8.20;;;8.80;99.90;;;;;;4946835;28;20055;-88
2022/11/25 09:21:53;;;;;;;16.08;8.45;;;8.90;99.90;;;;;;4951139;28;20043;-89
2022/11/25 09:24:19;;;;;;;16.42;8.90;;;8.90;99.90;;;;;;4959655;28;20055;-90
2022/11/25 09:26:45;;;;;;;11.73;5.40;;;9.00;99.90;;;;;;4948034;28;20178;-88
2022/11/25 09:29:12;;;;;;;10.43;4.63;;;8.90;99.90;;;;;;4961524;28;20043;-88
2022/11/25 09:31:39;;;;;;;17.92;8.02;;;8.90;99.90;;;;;;4946812;28;20089;-89
2022/11/25 09:34:04;;;;;;;14.18;6.07;;;9.00;99.90;;;;;;4958849;28;20043;-89
2022/11/25 09:36:30;;;;;;;14.85;7.97;;;9.00;99.90;;;;;;4954989;28;20409;-88
2022/11/25 09:38:56;;;;;;;15.82;8.20;;;9.10;99.90;;;;;;4942850;28;20055;-89
2022/11/25 09:47:44;;;;;;;11.98;4.60;;;9.10;99.90;;;;;;4937467;28;20051;-89
2022/11/25 09:50:41;;;;;;;12.77;5.55;;;9.10;99.90;;;;;;4960336;28;20062;-89
2022/11/25 09:53:16;;;;;;;11.95;7.20;;;9.20;99.90;;;;;;4965124;28;20073;-87
2022/11/25 09:55:46;;;;;;;12.85;7.03;;;9.20;99.90;;;;;;4940998;28;20062;-89
2022/11/25 09:58:33;;;;;;;11.95;4.80;;;9.30;99.90;;;;;;4947116;28;20058;-88
2022/11/25 10:01:03;;;;;;;13.32;4.78;;;9.30;99.90;;;;;;4960981;28;20051;-89
2022/11/25 10:03:45;;;;;;;10.85;6.32;;;9.30;99.90;;;;;;4940947;28;20142;-88
2022/11/25 10:06:18;;;;;;;13.60;7.25;;;9.40;99.90;;;;;;4958021;28;20049;-88
2022/11/25 10:08:52;;;;;;;15.65;7.50;;;9.50;99.90;;;;;;4960494;28;20431;-88
2022/11/25 10:11:23;;;;;;;14.30;6.90;;;9.50;99.90;;;;;;4965287;28;20043;-89
2022/11/25 10:13:51;;;;;;;;;;;9.60;99.90;;;;;;4959016;28;20039;-88
2022/11/25 10:16:37;;;;;;;12.45;6.50;;;9.50;99.90;;;;;;4954565;28;19940;-88
2022/11/25 10:19:30;;;;;;;13.45;6.10;;;9.60;99.90;;;;;;4940773;28;20202;-89
2022/11/25 10:21:56;;;;;;;14.85;6.47;;;9.60;99.90;;;;;;4978348;28;20047;-88
2022/11/25 10:24:23;;;;;;;13.60;6.28;;;9.70;99.90;;;;;;4951485;28;20495;-88
2022/11/25 10:27:00;;;;;;;13.63;5.63;;;9.80;99.90;;;;;;4940394;28;20521;-88
2022/11/25 10:29:28;;;;;;;12.40;6.20;;;9.80;99.90;;;;;;4962023;28;20051;-89
2022/11/25 10:32:20;;;;;;;13.60;6.13;;;9.80;99.90;;;;;;4940520;28;20043;-88
2022/11/25 10:34:52;;;;;;;12.05;5.88;;;9.90;99.90;;;;;;4943305;28;20043;-89
2022/11/25 10:37:32;;;;;;;11.48;5.40;;;9.90;99.90;;;;;;4959090;28;20436;-90
2022/11/25 10:39:58;;;;;;;11.53;4.00;;;10.00;99.90;;;;;;4968717;28;20079;-88
2022/11/25 10:42:27;;;;;;;11.57;5.68;;;9.90;99.90;;;;;;4967880;28;20074;-89
2022/11/25 10:44:53;;;;;;;13.65;5.85;;;10.00;99.90;;;;;;4958671;28;20062;-89
2022/11/25 10:47:22;;;;;;;11.57;5.85;;;10.00;99.90;;;;;;4963807;28;20039;-88
2022/11/25 10:50:07;;;;;;;11.85;5.53;;;10.10;99.90;;;;;;4946439;28;20055;-89
2022/11/25 10:52:43;;;;;;;14.05;5.75;;;10.10;99.90;;;;;;4961793;28;20082;-90
2022/11/25 10:55:13;;;;;;;13.02;5.63;;;10.10;99.90;;;;;;4947162;28;20059;-88
2022/11/25 10:57:39;;;;;;;10.85;4.10;;;10.10;99.90;;;;;;4947128;28;20054;-88
2022/11/25 11:00:07;;;;;;;12.07;5.68;;;10.10;99.90;;;;;;4944364;28;20058;-88
2022/11/25 11:02:39;;;;;;;12.23;5.10;;;10.20;99.90;;;;;;4963334;28;20082;-89
2022/11/25 11:05:08;;;;;;;12.45;6.00;;;10.20;99.90;;;;;;4927476;28;20097;-87
2022/11/25 11:07:37;;;;;;;12.50;4.15;;;10.20;99.90;;;;;;4948304;28;20460;-87
2022/11/25 11:10:24;;;;;;;14.10;5.45;;;10.30;99.90;;;;;;4941626;28;20475;-89
2022/11/25 11:12:59;;;;;;;12.50;5.10;;;10.30;99.90;;;;;;4960832;28;20042;-89
2022/11/25 11:15:26;;;;;;;13.40;5.10;;;10.40;99.90;;;;;;4946841;28;20437;-88
2022/11/25 11:17:58;;;;;;;12.27;4.32;;;10.40;99.90;;;;;;4946937;28;20102;-88
2022/11/25 11:20:30;;;;;;;12.95;4.78;;;10.40;99.90;;;;;;4962059;28;20428;-88
2022/11/25 11:23:13;;;;;;;14.05;4.47;;;10.40;99.90;;;;;;4946962;28;20039;-88
2022/11/25 11:25:41;;;;;;;11.93;4.13;;;10.40;99.90;;;;;;4945423;28;20057;-89
2022/11/25 11:28:27;;;;;;;12.98;4.60;;;10.40;99.90;;;;;;4944596;28;20425;-90
2022/11/25 11:31:14;;;;;;;12.30;4.53;;;10.50;99.90;;;;;;4959736;28;20063;-89
2022/11/25 11:33:47;;;;;;;14.73;4.85;;;10.60;99.90;;;;;;4983524;28;20046;-89
2022/11/25 11:36:38;;;;;;;12.40;3.60;;;10.60;99.90;;;;;;4949701;28;20069;-89
2022/11/25 11:39:10;;;;;;;12.73;3.97;;;10.70;99.90;;;;;;4953825;28;20043;-88
2022/11/25 11:41:43;;;;;;;13.23;4.55;;;10.70;99.90;;;;;;4955164;28;20157;-89
2022/11/25 11:44:28;;;;;;;13.13;4.57;;;10.70;99.90;;;;;;4944613;28;20122;-90
2022/11/25 11:47:18;;;;;;;12.18;3.72;;;10.80;99.90;;;;;;4957964;28;20475;-88
2022/11/25 11:50:15;;;;;;;9.93;3.13;;;10.80;99.90;;;;;;4955485;28;20043;-88
2022/11/25 11:52:57;;;;;;;13.15;3.60;;;10.80;99.90;;;;;;4970859;28;20051;-88
2022/11/25 11:55:52;;;;;;;15.27;3.88;;;10.90;99.90;;;;;;4940635;28;20075;-87
2022/11/25 11:58:41;;;;;;;10.52;3.58;;;10.90;99.90;;;;;;4927825;28;20130;-87
2022/11/25 12:01:32;;;;;;;13.98;3.58;;;11.00;99.90;;;;;;4943201;28;20059;-87
2022/11/25 12:04:17;;;;;;;13.85;3.80;;;11.00;99.90;;;;;;4973095;28;20105;-89
2022/11/25 12:06:57;;;;;;;11.65;3.75;;;11.00;99.90;;;;;;4929276;29;20063;-88
2022/11/25 12:09:27;;;;;;;12.32;3.75;;;11.00;99.90;;;;;;4943069;28;20058;-88
2022/11/25 12:11:57;;;;;;;12.63;3.75;;;11.00;99.90;;;;;;4960601;28;20046;-88
2022/11/25 12:14:41;;;;;;;12.67;3.87;;;11.00;99.90;;;;;;4958172;28;20444;-88
2022/11/25 12:17:16;;;;;;;10.98;3.63;;;11.00;99.90;;;;;;4939535;28;20291;-87
2022/11/25 12:20:13;;;;;;;12.45;4.05;;;10.90;99.90;;;;;;4941336;28;20105;-88
2022/11/25 12:22:51;;;;;;;14.60;4.47;;;11.00;99.90;;;;;;4939978;28;20169;-88
2022/11/25 12:25:23;;;;;;;12.05;4.10;;;10.90;99.90;;;;;;4942227;28;20058;-87
2022/11/25 12:27:51;;;;;;;14.55;4.40;;;11.00;99.90;;;;;;4927480;28;20133;-88
2022/11/25 12:30:19;;;;;;;14.73;4.35;;;11.10;99.90;;;;;;4942971;28;20055;-88
2022/11/25 12:33:22;;;;;;;12.80;4.13;;;11.10;99.90;;;;;;4939989;28;20055;-88
2022/11/25 12:36:05;;;;;;;12.70;4.72;;;11.00;99.90;;;;;;4939030;28;20059;-88
2022/11/25 12:38:54;;;;;;;12.52;4.10;;;11.00;99.90;;;;;;4940023;28;20043;-88
2022/11/25 12:41:41;;;;;;;12.48;4.00;;;11.00;99.90;;;;;;4957979;28;20051;-89
2022/11/25 12:44:15;;;;;;;14.43;4.25;;;11.00;99.90;;;;;;4929032;28;20440;-89
2022/11/25 12:46:47;;;;;;;11.48;4.18;;;10.90;99.90;;;;;;4942167;28;20074;-88
2022/11/25 12:49:21;;;;;;;13.48;4.40;;;10.90;99.90;;;;;;4963843;28;20057;-88
2022/11/25 12:51:55;;;;;;;13.05;4.13;;;10.90;99.90;;;;;;4938710;28;20054;-89
2022/11/25 12:54:33;;;;;;;14.82;5.00;;;10.80;99.90;;;;;;4939936;28;20158;-89
2022/11/25 12:57:22;;;;;;;12.80;4.28;;;10.80;99.90;;;;;;4940061;28;20047;-89
2022/11/25 12:59:56;;;;;;;14.73;4.43;;;10.80;99.90;;;;;;4942460;28;20070;-89
2022/11/25 13:02:40;;;;;;;12.27;4.07;;;10.90;99.90;;;;;;4943935;28;20550;-88
2022/11/25 13:05:09;;;;;;;14.32;4.25;;;10.90;99.90;;;;;;4961754;28;20034;-84
2022/11/25 13:08:06;;;;;;;15.60;4.60;;;10.90;99.90;;;;;;4943156;28;20049;-85
2022/11/25 13:10:50;;;;;;;15.40;4.53;;;10.90;99.90;;;;;;4963181;28;20077;-84